Time;durP1;ratioP1;P1;durP2;ratioP2;P2;SDS_P1;SDS_P2;PMS_P1;PMS_P2;Temp;Humidity;BMP_temperature;BMP_pressure;BME280_temperature;BME280_humidity;BME280_pressure;Samples;Min_cycle;Max_cycle;Signal;HPM_P1;HPM_P2
2023/03/10 00:00:30;;;;;;;166.43;32.17;;;;;;;2.17;100.00;96422.06;4939976;29;20496;-89
2023/03/10 00:02:56;;;;;;;456.90;50.65;;;;;;;2.18;100.00;96426.25;4940192;29;20090;-88
2023/03/10 00:05:21;;;;;;;760.08;75.93;;;;;;;2.20;100.00;96416.47;4946429;28;20066;-88
2023/03/10 00:07:49;;;;;;;737.85;72.55;;;;;;;2.37;100.00;96430.53;4964439;28;20070;-88
2023/03/10 00:10:15;;;;;;;788.60;77.32;;;;;;;2.40;100.00;96437.06;4948652;28;20047;-89
2023/03/10 00:12:40;;;;;;;656.38;63.63;;;;;;;2.40;100.00;96430.13;4969685;28;20028;-87
2023/03/10 00:15:07;;;;;;;439.02;48.85;;;;;;;2.52;100.00;96438.03;4948103;28;20058;-88
2023/03/10 00:17:33;;;;;;;703.28;68.55;;;;;;;2.29;100.00;96438.53;4965662;28;20047;-88
2023/03/10 00:19:59;;;;;;;869.88;80.75;;;;;;;2.21;100.00;96426.59;4961103;28;20228;-87
2023/03/10 00:22:25;;;;;;;439.63;46.15;;;;;;;2.14;100.00;96434.38;4962441;28;20031;-87
2023/03/10 00:24:50;;;;;;;727.67;64.45;;;;;;;2.10;100.00;96448.75;4965767;28;20071;-87
2023/03/10 00:27:15;;;;;;;840.55;79.38;;;;;;;2.14;100.00;96457.69;4946322;28;20073;-89
2023/03/10 00:29:41;;;;;;;735.97;69.50;;;;;;;2.33;100.00;96460.41;4947307;28;20089;-87
2023/03/10 00:32:06;;;;;;;736.90;71.82;;;;;;;2.14;100.00;96447.31;4946666;28;20069;-87
2023/03/10 00:34:32;;;;;;;237.75;31.52;;;;;;;2.26;100.00;96444.91;4966614;28;20043;-87
2023/03/10 00:36:57;;;;;;;425.80;46.38;;;;;;;2.07;100.00;96445.78;4969252;28;20482;-88
2023/03/10 00:39:26;;;;;;;451.98;49.90;;;;;;;2.26;100.00;96455.28;4949974;28;20389;-88
2023/03/10 00:41:51;;;;;;;913.13;83.68;;;;;;;1.90;100.00;96460.94;4968208;28;20470;-88
2023/03/10 00:44:17;;;;;;;536.83;51.58;;;;;;;2.03;100.00;96445.38;4968225;28;20035;-89
2023/03/10 00:46:42;;;;;;;466.90;49.83;;;;;;;2.16;100.00;96439.38;4947062;28;20398;-86
2023/03/10 00:49:13;;;;;;;1073.57;100.90;;;;;;;2.05;100.00;96434.81;4951266;28;20130;-86
2023/03/10 00:51:38;;;;;;;1010.13;94.57;;;;;;;2.04;100.00;96431.44;4948677;28;20105;-88
2023/03/10 00:54:04;;;;;;;1203.90;113.80;;;;;;;2.03;100.00;96429.88;4949706;28;20150;-87
2023/03/10 00:56:29;;;;;;;521.25;54.13;;;;;;;2.11;100.00;96442.56;4970160;28;20141;-87
2023/03/10 00:58:57;;;;;;;961.95;87.00;;;;;;;2.17;100.00;96440.97;4967747;28;20034;-87
2023/03/10 01:01:29;;;;;;;1145.10;104.38;;;;;;;2.26;100.00;96454.47;4964600;28;20087;-87
2023/03/10 01:03:57;;;;;;;815.85;74.20;;;;;;;2.34;100.00;96443.88;4947767;28;20110;-85
2023/03/10 01:06:23;;;;;;;582.83;61.85;;;;;;;2.31;100.00;96441.69;4954273;28;20050;-85
2023/03/10 01:08:49;;;;;;;476.00;50.83;;;;;;;2.35;100.00;96449.84;4966732;28;20719;-87
2023/03/10 01:11:21;;;;;;;296.45;37.55;;;;;;;2.20;100.00;96452.69;4964793;28;20449;-87
2023/03/10 01:13:47;;;;;;;565.88;54.53;;;;;;;1.94;100.00;96451.78;4975136;28;20057;-86
2023/03/10 01:16:12;;;;;;;535.47;50.90;;;;;;;2.00;100.00;96462.09;4968662;28;20417;-89
2023/03/10 01:18:38;;;;;;;773.55;81.03;;;;;;;2.34;100.00;96451.63;4967640;28;20054;-89
2023/03/10 01:21:06;;;;;;;526.35;58.70;;;;;;;2.38;100.00;96445.06;4971548;28;20047;-88
2023/03/10 01:23:32;;;;;;;76.28;22.40;;;;;;;2.42;100.00;96454.00;4959453;28;20490;-89
2023/03/10 01:25:57;;;;;;;213.32;29.30;;;;;;;2.17;100.00;96455.72;4969017;28;20043;-87
2023/03/10 01:28:23;;;;;;;149.30;22.27;;;;;;;2.26;100.00;96464.81;4970345;28;20169;-87
2023/03/10 01:30:49;;;;;;;59.35;12.48;;;;;;;2.19;100.00;96474.41;4953569;28;20043;-87
2023/03/10 01:33:19;;;;;;;25.17;9.80;;;;;;;1.98;100.00;96463.31;4968163;28;20039;-88
2023/03/10 01:35:44;;;;;;;185.82;19.45;;;;;;;2.01;100.00;96462.91;4967296;28;20110;-87
2023/03/10 01:38:10;;;;;;;17.23;7.13;;;;;;;1.91;100.00;96458.16;4965248;28;20109;-87
2023/03/10 01:40:36;;;;;;;70.53;11.48;;;;;;;1.96;100.00;96466.09;4970497;28;20026;-88
2023/03/10 01:43:37;;;;;;;20.08;7.57;;;;;;;2.24;100.00;96472.78;4965275;28;20121;-89
2023/03/10 01:46:03;;;;;;;27.60;9.57;;;;;;;1.96;100.00;96467.88;4919870;28;20166;-89
2023/03/10 01:48:33;;;;;;;22.95;9.23;;;;;;;1.98;100.00;96463.31;4971720;28;20112;-88
2023/03/10 01:50:59;;;;;;;34.60;12.15;;;;;;;1.91;100.00;96460.75;4969212;28;20042;-88
2023/03/10 01:53:27;;;;;;;50.10;11.88;;;;;;;1.85;100.00;96459.75;4968740;28;20117;-89
2023/03/10 01:55:58;;;;;;;127.43;17.63;;;;;;;1.87;100.00;96462.16;4964438;28;20043;-88
2023/03/10 01:58:28;;;;;;;307.13;27.63;;;;;;;1.93;100.00;96470.88;4965770;28;20039;-89
2023/03/10 02:00:54;;;;;;;339.00;31.77;;;;;;;2.10;100.00;96482.38;4965662;28;20071;-89
2023/03/10 02:03:45;;;;;;;44.38;14.95;;;;;;;1.85;100.00;96475.28;4948410;28;20070;-87
2023/03/10 02:06:14;;;;;;;45.60;15.18;;;;;;;2.03;100.00;96486.78;4943386;28;20073;-88
2023/03/10 02:08:46;;;;;;;50.20;15.20;;;;;;;1.97;100.00;96483.22;4965588;28;20046;-89
2023/03/10 02:11:13;;;;;;;46.72;14.23;;;;;;;2.13;100.00;96483.78;4965060;28;20097;-89
2023/03/10 02:13:39;;;;;;;45.58;14.23;;;;;;;1.89;100.00;96495.56;4971348;28;20074;-88
2023/03/10 02:16:05;;;;;;;44.25;13.88;;;;;;;2.14;100.00;96488.72;4966633;28;20039;-88
2023/03/10 02:18:31;;;;;;;36.53;13.63;;;;;;;2.19;100.00;96498.47;4967100;28;20038;-87
2023/03/10 02:21:04;;;;;;;45.05;14.98;;;;;;;2.28;100.00;96488.69;4945061;28;20036;-88
2023/03/10 02:23:33;;;;;;;38.97;13.75;;;;;;;2.30;100.00;96504.03;4970455;28;20117;-87
2023/03/10 02:26:10;;;;;;;43.03;14.77;;;;;;;2.23;100.00;96496.28;4964243;28;20493;-87
2023/03/10 02:28:35;;;;;;;43.65;14.70;;;;;;;2.11;100.00;96493.53;4968757;28;20043;-86
2023/03/10 02:31:01;;;;;;;37.03;12.50;;;;;;;2.13;100.00;96487.16;4967143;28;20050;-86
2023/03/10 02:33:30;;;;;;;41.05;11.52;;;;;;;2.21;100.00;96480.19;4967745;28;20070;-88
2023/03/10 02:36:16;;;;;;;141.25;17.77;;;;;;;2.35;100.00;96481.69;4965469;28;20047;-88
2023/03/10 02:38:42;;;;;;;28.70;10.10;;;;;;;2.38;100.00;96481.31;4947275;28;20035;-87
2023/03/10 02:41:38;;;;;;;180.82;19.23;;;;;;;2.59;100.00;96489.78;4949190;28;20069;-86
2023/03/10 02:44:07;;;;;;;39.75;11.48;;;;;;;2.18;100.00;96483.19;4929369;28;20086;-87
2023/03/10 02:46:35;;;;;;;30.38;11.70;;;;;;;2.26;100.00;96495.88;4967143;28;20494;-87
2023/03/10 02:49:03;;;;;;;288.75;26.70;;;;;;;2.22;100.00;96479.19;4968098;28;20488;-88
2023/03/10 02:51:32;;;;;;;166.15;21.85;;;;;;;2.12;100.00;96477.00;4949120;28;20119;-86
2023/03/10 02:53:59;;;;;;;455.85;37.60;;;;;;;2.02;100.00;96486.97;4946776;28;20038;-86
2023/03/10 02:56:25;;;;;;;372.05;32.00;;;;;;;2.04;100.00;96483.19;4961845;28;20050;-87
2023/03/10 02:58:51;;;;;;;798.75;65.82;;;;;;;2.13;100.00;96500.09;4967806;28;20063;-88
2023/03/10 03:01:17;;;;;;;529.60;42.80;;;;;;;1.93;100.00;96492.38;4963983;28;20039;-87
2023/03/10 03:03:43;;;;;;;484.63;40.08;;;;;;;2.08;100.00;96504.31;4967604;28;20035;-87
2023/03/10 03:06:09;;;;;;;68.28;11.93;;;;;;;2.12;100.00;96508.84;4965069;28;20421;-87
2023/03/10 03:08:35;;;;;;;141.13;14.63;;;;;;;1.96;100.00;96501.50;4968919;28;20121;-88
2023/03/10 03:11:01;;;;;;;193.25;17.92;;;;;;;1.75;100.00;96515.47;4969153;28;20174;-87
2023/03/10 03:13:27;;;;;;;130.63;12.60;;;;;;;1.79;100.00;96517.47;4967351;28;20515;-88
2023/03/10 03:15:52;;;;;;;18.50;7.35;;;;;;;1.67;100.00;96513.91;4961593;28;20039;-87
2023/03/10 03:18:18;;;;;;;29.10;9.30;;;;;;;1.58;100.00;96525.44;4970657;28;20045;-88
2023/03/10 03:20:43;;;;;;;70.88;10.75;;;;;;;1.71;100.00;96536.59;4963024;28;20039;-88
2023/03/10 03:23:09;;;;;;;100.13;13.80;;;;;;;1.73;100.00;96543.34;4969707;28;20045;-89
2023/03/10 03:25:37;;;;;;;273.92;29.23;;;;;;;1.92;100.00;96549.47;4966567;28;20035;-87
2023/03/10 03:28:04;;;;;;;135.13;14.50;;;;;;;1.55;100.00;96547.31;4963951;28;20050;-87
2023/03/10 03:30:30;;;;;;;131.75;17.90;;;;;;;1.69;100.00;96555.88;4964387;28;20499;-87
2023/03/10 03:32:55;;;;;;;24.33;9.13;;;;;;;1.61;100.00;96566.41;4950592;28;20118;-87
2023/03/10 03:35:32;;;;;;;26.88;9.98;;;;;;;1.66;100.00;96569.19;4965294;28;20039;-86
2023/03/10 03:37:57;;;;;;;34.17;10.43;;;;;;;1.52;100.00;96560.66;4963866;28;20039;-87
2023/03/10 03:40:25;;;;;;;30.77;11.50;;;;;;;1.45;100.00;96570.97;4962197;28;20074;-86
2023/03/10 03:42:52;;;;;;;36.13;13.57;;;;;;;1.48;100.00;96574.97;4966613;28;20073;-87
2023/03/10 03:45:20;;;;;;;35.08;12.75;;;;;;;1.49;100.00;96590.25;4967390;28;20066;-86
2023/03/10 03:47:45;;;;;;;42.92;12.85;;;;;;;1.44;100.00;96597.81;4962493;28;20067;-86
2023/03/10 03:50:12;;;;;;;35.72;12.90;;;;;;;1.40;100.00;96601.78;4965186;28;20074;-86
2023/03/10 03:52:38;;;;;;;41.40;13.50;;;;;;;1.34;100.00;96603.38;4948076;28;20082;-87
2023/03/10 03:55:05;;;;;;;41.17;12.25;;;;;;;1.26;100.00;96591.41;4948746;28;20118;-86
2023/03/10 03:57:31;;;;;;;40.05;12.27;;;;;;;1.34;100.00;96597.38;4959675;28;20405;-86
2023/03/10 03:59:56;;;;;;;45.47;12.73;;;;;;;1.39;100.00;96600.19;4963322;28;20050;-85
2023/03/10 04:02:22;;;;;;;51.75;14.13;;;;;;;1.18;100.00;96609.69;4962486;28;20098;-85
2023/03/10 04:04:47;;;;;;;56.17;15.25;;;;;;;1.33;100.00;96627.63;4946578;28;20086;-86
2023/03/10 04:07:13;;;;;;;52.78;15.48;;;;;;;1.29;100.00;96641.94;4963841;28;20042;-87
2023/03/10 04:09:40;;;;;;;50.92;16.02;;;;;;;1.36;100.00;96632.41;4966643;28;20387;-87
2023/03/10 04:12:08;;;;;;;63.05;16.50;;;;;;;1.35;100.00;96637.75;4962917;28;20039;-89
2023/03/10 04:14:33;;;;;;;65.82;19.15;;;;;;;1.34;100.00;96638.75;4965251;28;20050;-85
2023/03/10 04:16:59;;;;;;;65.43;21.13;;;;;;;1.22;100.00;96641.91;4960918;28;20039;-84
2023/03/10 04:19:28;;;;;;;80.25;22.42;;;;;;;1.53;100.00;96638.00;4961898;28;20057;-87
2023/03/10 04:21:53;;;;;;;64.43;20.60;;;;;;;1.43;100.00;96658.28;4971084;28;20043;-86
2023/03/10 04:24:18;;;;;;;55.10;18.27;;;;;;;1.31;100.00;96663.22;4973656;28;20058;-86
2023/03/10 04:26:45;;;;;;;64.07;19.13;;;;;;;1.44;100.00;96665.03;4965863;28;20081;-85
2023/03/10 04:29:11;;;;;;;43.55;15.25;;;;;;;1.36;100.00;96662.59;4964702;28;20039;-85
2023/03/10 04:31:39;;;;;;;53.10;15.80;;;;;;;1.04;100.00;96670.06;4962453;28;20122;-84
2023/03/10 04:34:05;;;;;;;46.92;14.73;;;;;;;1.24;100.00;96683.03;4964000;28;20559;-86
2023/03/10 04:36:30;;;;;;;41.10;13.93;;;;;;;1.15;100.00;96692.75;4966939;28;20043;-86
2023/03/10 04:38:56;;;;;;;45.63;13.57;;;;;;;1.39;100.00;96693.25;4966580;28;20035;-85
2023/03/10 04:41:22;;;;;;;40.92;12.82;;;;;;;1.59;100.00;96708.03;4944826;28;20039;-85
2023/03/10 04:43:50;;;;;;;31.92;12.10;;;;;;;1.46;100.00;96701.00;4964876;28;20047;-86
2023/03/10 04:46:16;;;;;;;33.75;11.00;;;;;;;0.99;100.00;96736.00;4949701;28;20064;-86
2023/03/10 04:48:42;;;;;;;28.02;10.07;;;;;;;1.22;100.00;96739.28;4961263;28;20143;-86
2023/03/10 04:51:11;;;;;;;29.90;10.05;;;;;;;1.32;100.00;96744.13;4965121;28;20399;-86
2023/03/10 04:53:37;;;;;;;39.03;10.70;;;;;;;1.17;100.00;96752.78;4963368;28;20038;-85
2023/03/10 04:56:05;;;;;;;32.80;10.32;;;;;;;1.17;100.00;96757.94;4963396;28;20067;-88
2023/03/10 04:58:32;;;;;;;38.45;11.75;;;;;;;1.04;100.00;96760.47;4966419;28;20118;-85
2023/03/10 05:00:57;;;;;;;39.08;11.35;;;;;;;0.89;100.00;96766.53;4943998;28;20110;-85
2023/03/10 05:03:23;;;;;;;73.63;13.40;;;;;;;1.17;100.00;96777.84;4960253;28;20133;-86
2023/03/10 05:05:49;;;;;;;52.08;12.00;;;;;;;1.22;100.00;96775.47;4964941;28;20047;-86
2023/03/10 05:08:14;;;;;;;47.42;10.93;;;;;;;1.05;100.00;96764.66;4944285;28;20035;-87
2023/03/10 05:10:42;;;;;;;147.77;19.60;;;;;;;1.34;100.00;96765.38;4963568;28;20061;-86
2023/03/10 05:13:11;;;;;;;35.75;8.23;;;;;;;1.12;100.00;96761.13;4962362;28;20064;-87
2023/03/10 05:15:40;;;;;;;51.10;10.57;;;;;;;1.73;100.00;96774.31;4963654;28;20050;-87
2023/03/10 05:18:07;;;;;;;25.50;7.78;;;;;;;1.56;100.00;96774.63;4963702;28;20139;-86
2023/03/10 05:20:32;;;;;;;29.42;6.32;;;;;;;1.44;100.00;96776.19;4961210;28;20047;-86
2023/03/10 05:22:57;;;;;;;26.98;7.60;;;;;;;1.19;100.00;96787.00;4960951;28;20598;-86
2023/03/10 05:25:23;;;;;;;18.02;6.10;;;;;;;1.34;100.00;96783.47;4958983;28;20031;-88
2023/03/10 05:27:48;;;;;;;27.17;8.38;;;;;;;1.38;100.00;96800.22;4959684;28;20042;-87
2023/03/10 05:30:16;;;;;;;32.53;10.48;;;;;;;1.49;100.00;96804.84;4965326;28;20035;-88
2023/03/10 05:32:43;;;;;;;29.23;9.18;;;;;;;1.24;100.00;96809.69;4958518;28;20445;-88
2023/03/10 05:35:09;;;;;;;30.63;11.65;;;;;;;1.13;100.00;96826.50;4963804;28;20452;-86
2023/03/10 05:37:38;;;;;;;27.90;11.90;;;;;;;1.38;100.00;96841.59;4963607;28;20035;-87
2023/03/10 05:40:09;;;;;;;29.13;10.70;;;;;;;1.43;100.00;96836.63;4966522;28;20038;-87
2023/03/10 05:42:34;;;;;;;27.77;10.95;;;;;;;1.35;100.00;96837.59;4965070;28;20050;-86
2023/03/10 05:45:00;;;;;;;27.13;10.18;;;;;;;1.37;100.00;96850.31;4947577;28;20043;-87
2023/03/10 05:47:25;;;;;;;28.05;10.30;;;;;;;1.27;100.00;96854.03;4945696;28;20089;-88
2023/03/10 05:49:51;;;;;;;32.58;9.55;;;;;;;1.26;100.00;96875.69;4943370;28;20044;-89
2023/03/10 05:52:19;;;;;;;27.83;8.55;;;;;;;1.39;100.00;96881.97;4964757;28;20046;-88
2023/03/10 05:54:44;;;;;;;23.92;8.55;;;;;;;1.42;100.00;96899.69;4966723;28;20497;-87
2023/03/10 05:57:10;;;;;;;22.65;6.65;;;;;;;1.21;100.00;96892.75;4948887;28;20059;-87
2023/03/10 05:59:35;;;;;;;20.73;6.75;;;;;;;1.37;100.00;96913.16;4948749;28;20405;-86
2023/03/10 06:02:04;;;;;;;15.05;6.50;;;;;;;1.51;100.00;96919.22;4952694;28;20042;-87
2023/03/10 06:04:32;;;;;;;14.07;5.60;;;;;;;1.28;100.00;96930.59;4967468;28;20043;-84
2023/03/10 06:06:59;;;;;;;15.93;6.20;;;;;;;1.25;100.00;96941.31;4974793;28;20054;-85
2023/03/10 06:09:26;;;;;;;11.43;5.50;;;;;;;1.31;100.00;96937.19;4977366;28;20081;-87
2023/03/10 06:11:51;;;;;;;13.63;5.13;;;;;;;1.26;100.00;96968.75;4977941;28;20043;-86
2023/03/10 06:14:17;;;;;;;9.68;3.78;;;;;;;1.10;100.00;96992.25;4976407;28;20097;-87
2023/03/10 06:16:48;;;;;;;9.38;3.65;;;;;;;1.27;100.00;96991.03;4969170;28;20050;-86
2023/03/10 06:19:13;;;;;;;8.35;3.35;;;;;;;1.14;100.00;96980.56;4959568;28;20058;-88
2023/03/10 06:21:39;;;;;;;7.80;3.85;;;;;;;1.07;100.00;96990.03;4976045;28;20043;-88
2023/03/10 06:24:04;;;;;;;12.35;4.30;;;;;;;1.27;100.00;97011.69;4958769;28;20038;-88
2023/03/10 06:26:30;;;;;;;9.75;4.13;;;;;;;1.36;100.00;97008.97;4958279;28;20113;-87
2023/03/10 06:28:58;;;;;;;13.88;5.10;;;;;;;1.51;100.00;97016.69;4976488;28;20082;-88
2023/03/10 06:31:23;;;;;;;12.75;4.28;;;;;;;1.37;100.00;97015.75;4976075;28;20485;-87
2023/03/10 06:33:49;;;;;;;11.07;4.03;;;;;;;1.58;100.00;97035.63;4976235;28;20034;-87
2023/03/10 06:36:18;;;;;;;9.52;4.38;;;;;;;1.71;100.00;97050.44;4976448;28;20106;-87
2023/03/10 06:38:44;;;;;;;11.25;4.82;;;;;;;1.59;100.00;97065.66;4975705;28;20035;-86
2023/03/10 06:41:10;;;;;;;30.42;7.35;;;;;;;1.61;100.00;97062.91;4976066;28;20416;-87
2023/03/10 06:43:36;;;;;;;31.02;7.40;;;;;;;1.61;100.00;97074.03;4975835;28;20106;-87
2023/03/10 06:46:03;;;;;;;19.30;5.50;;;;;;;1.68;100.00;97079.28;4976207;28;20063;-86
2023/03/10 06:48:29;;;;;;;16.17;5.90;;;;;;;1.70;100.00;97088.47;4975632;28;20055;-86
2023/03/10 06:50:54;;;;;;;15.85;5.35;;;;;;;1.42;100.00;97103.91;4975408;28;20027;-87
2023/03/10 06:53:20;;;;;;;36.85;6.93;;;;;;;1.85;100.00;97110.84;4975265;28;20038;-88
2023/03/10 06:56:00;;;;;;;15.68;4.93;;;;;;;1.78;100.00;97107.41;4977448;28;20046;-88
2023/03/10 06:58:27;;;;;;;36.10;7.60;;;;;;;1.65;100.00;97126.22;4956470;28;20053;-87
2023/03/10 07:00:53;;;;;;;19.48;5.20;;;;;;;1.68;100.00;97131.00;4975152;28;20039;-86
2023/03/10 07:03:19;;;;;;;19.23;6.38;;;;;;;1.73;100.00;97133.84;4956263;28;20049;-85
2023/03/10 07:05:44;;;;;;;16.73;5.75;;;;;;;1.56;100.00;97118.56;4973933;28;20051;-86
2023/03/10 07:08:10;;;;;;;10.93;5.15;;;;;;;1.61;100.00;97130.16;4973319;28;20097;-85
2023/03/10 07:10:35;;;;;;;14.73;6.30;;;;;;;1.53;100.00;97137.03;4957557;28;20066;-85
2023/03/10 07:13:01;;;;;;;15.95;6.35;;;;;;;1.66;100.00;97146.69;4976309;28;20455;-86
2023/03/10 07:15:28;;;;;;;21.75;5.70;;;;;;;1.63;100.00;97144.47;4974839;28;20393;-87
2023/03/10 07:17:57;;;;;;;23.83;6.88;;;;;;;1.79;100.00;97148.63;4976025;28;20449;-87
2023/03/10 07:20:23;;;;;;;32.25;6.97;;;;;;;1.69;100.00;97148.94;4974738;28;20038;-86
2023/03/10 07:22:49;;;;;;;13.10;4.50;;;;;;;1.57;100.00;97147.81;4973930;28;20070;-88
2023/03/10 07:25:15;;;;;;;10.82;3.67;;;;;;;1.51;100.00;97167.44;4974805;28;20052;-87
2023/03/10 07:27:40;;;;;;;11.88;4.40;;;;;;;1.53;100.00;97157.72;4974793;28;20100;-87
2023/03/10 07:30:07;;;;;;;21.67;4.55;;;;;;;1.66;100.00;97161.44;4958302;28;20045;-87
2023/03/10 07:32:33;;;;;;;15.52;5.40;;;;;;;1.60;100.00;97144.06;4975217;28;20053;-88
2023/03/10 07:34:58;;;;;;;12.93;4.07;;;;;;;1.64;100.00;97145.28;4959009;28;20038;-86
2023/03/10 07:37:24;;;;;;;10.13;3.58;;;;;;;1.62;100.00;97158.41;4958522;28;20046;-88
2023/03/10 07:39:49;;;;;;;12.05;3.60;;;;;;;1.72;100.00;97160.69;4974824;28;20141;-88
2023/03/10 07:42:15;;;;;;;9.35;4.10;;;;;;;1.64;100.00;97166.78;4992678;28;20117;-86
2023/03/10 07:44:40;;;;;;;14.88;4.80;;;;;;;1.78;100.00;97182.44;4959671;28;20105;-88
2023/03/10 07:47:06;;;;;;;23.98;6.93;;;;;;;1.69;100.00;97194.69;4979747;28;20042;-89
2023/03/10 07:49:31;;;;;;;16.02;6.00;;;;;;;1.47;100.00;97215.34;4959672;28;20039;-87
2023/03/10 07:51:57;;;;;;;15.50;6.00;;;;;;;1.62;100.00;97219.69;4958518;28;20038;-86
2023/03/10 07:54:22;;;;;;;53.38;8.68;;;;;;;1.63;100.00;97239.38;4960709;28;20085;-89
2023/03/10 07:56:48;;;;;;;18.98;6.97;;;;;;;1.70;100.00;97237.66;4976998;28;20046;-89
2023/03/10 07:59:16;;;;;;;18.85;5.72;;;;;;;1.44;100.00;97244.13;4962242;28;20102;-89
2023/03/10 08:01:44;;;;;;;11.25;5.20;;;;;;;1.82;100.00;97256.09;4984220;28;20047;-88
2023/03/10 08:04:11;;;;;;;15.18;6.03;;;;;;;1.80;100.00;97284.75;4961388;28;20042;-86
2023/03/10 08:06:37;;;;;;;13.80;6.28;;;;;;;1.62;100.00;97281.75;4959268;28;20043;-88
2023/03/10 08:09:03;;;;;;;11.68;5.32;;;;;;;1.71;100.00;97311.69;4975409;28;20101;-89
2023/03/10 08:11:28;;;;;;;16.75;5.18;;;;;;;1.75;100.00;97323.28;4956931;28;20110;-87
2023/03/10 08:13:54;;;;;;;10.35;5.15;;;;;;;1.75;100.00;97338.81;4974517;28;20081;-86
2023/03/10 08:16:21;;;;;;;17.30;5.60;;;;;;;1.79;100.00;97355.59;4973430;28;20074;-87
2023/03/10 08:18:50;;;;;;;20.05;6.25;;;;;;;1.87;100.00;97372.00;4972979;28;20046;-85
2023/03/10 08:21:15;;;;;;;14.60;6.28;;;;;;;1.88;100.00;97386.53;4956258;28;20058;-87
2023/03/10 08:23:43;;;;;;;21.25;6.03;;;;;;;1.95;100.00;97380.47;4973064;28;20070;-87
2023/03/10 08:26:14;;;;;;;12.60;6.20;;;;;;;1.93;100.00;97391.97;4973434;28;20371;-85
2023/03/10 08:28:40;;;;;;;13.65;5.03;;;;;;;1.76;100.00;97417.22;4972911;28;20038;-85
2023/03/10 08:31:11;;;;;;;9.98;4.28;;;;;;;1.90;100.00;97402.66;4974042;28;20065;-85
2023/03/10 08:33:38;;;;;;;15.05;4.30;;;;;;;1.77;100.00;97422.22;4956657;28;20444;-87
2023/03/10 08:36:10;;;;;;;10.75;4.07;;;;;;;1.88;100.00;97441.69;4971453;28;20045;-88
2023/03/10 08:38:40;;;;;;;14.77;4.80;;;;;;;1.81;100.00;97438.19;4973567;28;20060;-88
2023/03/10 08:41:13;;;;;;;11.25;4.93;;;;;;;2.06;100.00;97443.09;4975440;28;20035;-88
2023/03/10 08:43:39;;;;;;;14.68;5.78;;;;;;;1.91;100.00;97467.19;4975913;28;20043;-86
2023/03/10 08:46:05;;;;;;;18.90;7.00;;;;;;;1.80;100.00;97476.19;4977527;28;20097;-88
2023/03/10 08:48:31;;;;;;;20.60;7.43;;;;;;;1.80;100.00;97450.34;4958300;28;20054;-86
2023/03/10 08:50:57;;;;;;;24.27;8.13;;;;;;;1.75;100.00;97457.78;4957327;28;20393;-88
2023/03/10 08:53:23;;;;;;;23.42;8.13;;;;;;;1.78;100.00;97454.88;4973376;28;20035;-87
2023/03/10 08:55:49;;;;;;;22.88;7.25;;;;;;;1.83;100.00;97473.25;4957262;28;20030;-88
2023/03/10 08:58:18;;;;;;;24.60;8.07;;;;;;;1.88;100.00;97479.69;4961016;28;20043;-87
2023/03/10 09:00:52;;;;;;;20.83;7.82;;;;;;;1.91;100.00;97489.66;4958103;28;20046;-88
2023/03/10 09:03:18;;;;;;;26.67;8.45;;;;;;;1.81;100.00;97488.16;4967387;28;20043;-85
2023/03/10 09:05:44;;;;;;;25.08;7.97;;;;;;;1.77;100.00;97496.44;4974791;28;20051;-87
2023/03/10 09:08:10;;;;;;;19.27;7.82;;;;;;;1.89;100.00;97510.56;4974547;28;20446;-84
2023/03/10 09:10:38;;;;;;;21.90;7.95;;;;;;;2.10;100.00;97527.97;4974936;28;20126;-86
2023/03/10 09:13:04;;;;;;;25.17;8.18;;;;;;;1.91;100.00;97508.59;4979976;28;20441;-86
2023/03/10 09:15:30;;;;;;;22.25;7.47;;;;;;;1.78;100.00;97527.31;4973916;28;20049;-85
2023/03/10 09:17:55;;;;;;;18.60;7.22;;;;;;;1.73;100.00;97527.00;4972673;28;20039;-85
2023/03/10 09:20:24;;;;;;;22.92;7.82;;;;;;;1.96;100.00;97546.88;4972108;28;20536;-84
2023/03/10 09:22:54;;;;;;;18.17;7.05;;;;;;;2.04;100.00;97554.56;4970964;28;20070;-85
2023/03/10 09:25:20;;;;;;;18.23;7.43;;;;;;;1.94;100.00;97551.41;4975387;28;20392;-87
2023/03/10 09:27:46;;;;;;;15.15;6.07;;;;;;;1.97;100.00;97543.31;4977547;28;20042;-89
2023/03/10 09:30:12;;;;;;;14.05;6.22;;;;;;;1.92;100.00;97581.84;4978455;28;20043;-88
2023/03/10 09:32:38;;;;;;;14.35;5.85;;;;;;;1.81;100.00;97575.31;4978326;28;20493;-88
2023/03/10 09:35:04;;;;;;;19.45;7.05;;;;;;;1.78;100.00;97573.88;4960066;28;20045;-88
2023/03/10 09:37:31;;;;;;;12.93;6.30;;;;;;;1.83;100.00;97592.28;4961268;28;20490;-90
2023/03/10 09:39:57;;;;;;;17.25;7.15;;;;;;;1.82;100.00;97580.31;4985128;28;20051;-87
2023/03/10 09:42:33;;;;;;;19.77;7.53;;;;;;;2.03;100.00;97599.56;4960490;28;20042;-88
2023/03/10 09:45:05;;;;;;;21.25;7.95;;;;;;;2.06;100.00;97604.38;4977326;28;20045;-90
2023/03/10 09:47:55;;;;;;;20.98;8.48;;;;;;;2.10;100.00;97603.03;4961050;28;20042;-87
2023/03/10 09:50:44;;;;;;;19.88;8.55;;;;;;;1.85;100.00;97623.94;4977984;28;20031;-90
2023/03/10 09:53:18;;;;;;;22.50;8.15;;;;;;;1.82;100.00;97639.81;4978484;28;20042;-91
2023/03/10 09:55:44;;;;;;;22.77;7.93;;;;;;;1.81;100.00;97640.81;4962805;28;20058;-91
2023/03/10 09:58:33;;;;;;;28.58;9.10;;;;;;;1.96;100.00;97645.19;4965042;28;20042;-89
2023/03/10 10:01:00;;;;;;;26.13;9.38;;;;;;;1.98;100.00;97659.59;4963709;28;20043;-89
2023/03/10 10:03:41;;;;;;;20.17;8.40;;;;;;;1.97;100.00;97652.81;4970742;28;20043;-86
2023/03/10 10:06:13;;;;;;;17.23;8.18;;;;;;;1.76;100.00;97622.38;4950152;29;20055;-88
2023/03/10 10:08:55;;;;;;;22.97;8.83;;;;;;;1.89;100.00;97655.47;4944939;29;20075;-85
2023/03/10 10:11:21;;;;;;;18.90;7.82;;;;;;;1.76;100.00;97640.50;4963185;29;21662;-88
2023/03/10 10:13:46;;;;;;;16.58;8.45;;;;;;;2.00;100.00;97677.53;4964181;29;20054;-90
2023/03/10 10:16:28;;;;;;;15.98;7.43;;;;;;;1.99;100.00;97675.94;4969081;29;20050;-88
2023/03/10 10:19:23;;;;;;;14.52;7.50;;;;;;;1.99;100.00;97687.09;4967495;29;20053;-88
2023/03/10 10:22:13;;;;;;;18.17;7.90;;;;;;;2.12;100.00;97691.66;4950151;29;20047;-91
2023/03/10 10:24:57;;;;;;;16.85;7.75;;;;;;;1.70;100.00;97704.09;4950619;29;20055;-88
2023/03/10 10:27:23;;;;;;;16.50;7.57;;;;;;;1.66;100.00;97697.63;4952521;29;20039;-85
2023/03/10 10:29:48;;;;;;;23.13;8.50;;;;;;;1.77;100.00;97683.53;4950732;29;20058;-89
2023/03/10 10:32:15;;;;;;;15.23;6.95;;;;;;;1.83;100.00;97698.34;4948936;29;20062;-90
2023/03/10 10:34:45;;;;;;;16.17;8.52;;;;;;;1.98;100.00;97716.53;4946606;29;20050;-86
2023/03/10 10:37:34;;;;;;;13.93;7.18;;;;;;;2.22;100.00;97716.53;4946702;29;20051;-90
2023/03/10 10:40:21;;;;;;;22.55;8.10;;;;;;;1.96;100.00;97712.50;4941797;29;20090;-88
2023/03/10 10:42:52;;;;;;;23.98;8.90;;;;;;;2.02;100.00;97718.78;4947855;29;20047;-90
2023/03/10 10:45:39;;;;;;;15.85;7.97;;;;;;;2.31;100.00;97722.47;4947707;29;20035;-89
2023/03/10 10:48:05;;;;;;;16.05;7.63;;;;;;;2.02;100.00;97736.88;4949101;29;20051;-91
2023/03/10 10:50:36;;;;;;;18.52;6.85;;;;;;;2.24;100.00;97748.22;4946851;29;20079;-89
2023/03/10 10:53:23;;;;;;;15.20;7.38;;;;;;;2.20;100.00;97744.38;4951047;29;20047;-88
2023/03/10 10:56:11;;;;;;;21.08;7.22;;;;;;;2.45;100.00;97767.50;4939324;29;20075;-90
2023/03/10 10:58:44;;;;;;;16.23;6.90;;;;;;;2.40;100.00;97755.88;4944998;29;20055;-91
2023/03/10 11:01:12;;;;;;;16.63;6.70;;;;;;;2.26;100.00;97726.38;4951041;29;20066;-89
2023/03/10 11:04:02;;;;;;;17.63;6.55;;;;;;;2.25;100.00;97726.53;4954274;29;20047;-90
2023/03/10 11:07:02;;;;;;;17.30;7.22;;;;;;;2.59;100.00;97748.63;5373812;23;20219;31
2023/03/10 11:09:28;;;;;;;8.82;5.85;;;;;;;2.09;100.00;97743.78;4897119;29;20045;-87
2023/03/10 11:12:18;;;;;;;12.43;6.20;;;;;;;2.28;100.00;97752.09;4869794;29;20033;-90
2023/03/10 11:14:51;;;;;;;12.88;6.15;;;;;;;2.30;100.00;97754.50;4867492;29;20053;-89
2023/03/10 11:17:45;;;;;;;28.90;13.90;;;;;;;2.26;100.00;97735.91;4882837;29;20049;-90
2023/03/10 11:20:24;;;;;;;24.35;12.23;;;;;;;2.13;100.00;97767.56;4881407;29;20053;-92
2023/03/10 11:23:22;;;;;;;17.23;7.85;;;;;;;2.21;100.00;97758.94;4857051;29;20128;-88
2023/03/10 11:26:16;;;;;;;25.27;9.13;;;;;;;2.02;100.00;97739.47;4886817;29;20062;-87